Flight Track Log - Related Links

Times and Time Zones

All times are in EDT time to prevent confusion due to time zone crossing. See the N52712 flight status page for this flight to view local times or setup timezone preferences in your user account.

Time Position Orientation Groundspeed Altitude Reporting Facility
EDT Latitude Longitude Course Direction KTS MPH feet Rate Location/Type
Wed 03:33:22 PM 42.4667 -71.2667 56° Northeast 82 94 900  Level KA90
Wed 03:34:29 PM 42.4833 -71.2333 56° Northeast 81 93 1,700 703 Climbing KA90
Wed 03:35:30 PM 42.5000 -71.2000 56° Northeast 97 112 2,400 590 Climbing KA90
Wed 03:36:31 PM 42.5000 -71.1667 90° East 106 122 2,900 303 Climbing KA90
Wed 03:37:29 PM 42.5167 -71.1167 66° East 130 150 3,000  Climbing KA90
Wed 03:38:29 PM 42.5500 -71.1000 20° North 136 157 2,900  Descending KA90
Wed 03:39:30 PM 42.5833 -71.1000 360° North 119 137 3,000 50 Climbing KA90
Wed 03:40:30 PM 42.6167 -71.1167 340° North 121 139 3,000  Level KA90
Wed 03:41:30 PM 42.6333 -71.1500 304° West 116 133 3,000  Level KA90
Wed 03:42:30 PM 42.6667 -71.1833 324° Northwest 115 132 3,000  Level KA90
Wed 03:43:30 PM 42.6833 -71.2000 324° Northwest 109 125 3,000  Level KA90
Wed 03:44:30 PM 42.7000 -71.2333 304° West 101 116 3,000  Level KA90
Wed 03:45:28 PM 42.7167 -71.2667 304° West 110 127 3,000  Level KA90
Wed 03:46:30 PM 42.7167 -71.3000 270° West 101 116 3,000  Level KA90
Wed 03:47:30 PM 42.7333 -71.3333 304° West 92 106 3,000  Level KA90
Wed 03:48:31 PM 42.7333 -71.3667 270° West 90 104 3,000  Level KA90
Wed 03:49:30 PM 42.7333 -71.4167 270° West 90 104 3,000  Level KA90
Wed 03:50:30 PM 42.7333 -71.4500 270° West 88 101 3,000  Level KA90
Wed 03:51:30 PM 42.7333 -71.4833 270° West 88 101 3,000  Level KA90
Wed 03:52:30 PM 42.7333 -71.5167 270° West 90 104 3,000  Level KA90
Wed 03:53:30 PM 42.7333 -71.5500 270° West 104 120 3,000  Level KA90
Wed 03:54:36 PM 42.7667 -71.5667 340° North 107 123 3,000  Level KA90
Wed 03:55:34 PM 42.7833 -71.6000 304° West 109 125 3,000 -100 Level KA90
Wed 03:56:36 PM 42.8167 -71.5833 20° North 133 153 2,800 -439 Descending KA90
Wed 03:57:37 PM 42.8500 -71.5500 36° Northeast 126 145 2,100 -350 Descending KA90
Wed 03:58:36 PM 42.8667 -71.5333 36° Northeast 105 121 2,100 -252 Level KA90
Wed 03:59:36 PM 42.8833 -71.5000 56° Northeast 103 119 1,600 -550 Descending KA90
Wed 04:00:36 PM 42.9000 -71.4833 36° Northeast 98 113 1,000 -574 Descending KA90
Wed 04:01:31 PM 42.9167 -71.4667 36° Northeast 76 87 500 -65 Descending KA90
Wed 04:03:00 PM 42.8697 -71.4364 155° Southeast  Level FlightAware Approximate
Wed 04:03:41 PM 42.9500 -71.4167 155° Southeast 84 97 800  Level KA90
Wed 04:05:07 PM 42.9500 -71.3833 90° East 89 102 1,700 625 Climbing KA90
Wed 04:06:05 PM 42.9333 -71.3667 144° Southeast 91 105 2,300 619 Climbing KA90
Wed 04:07:13 PM 42.9167 -71.3333 124° Southeast 97 112 3,000 328 Climbing KA90
Wed 04:08:13 PM 42.8833 -71.3000 144° Southeast 102 117 3,000  Level KA90
Wed 04:09:07 PM 42.8667 -71.2833 144° Southeast 107 123 3,000 -53 Level KA90
Wed 04:10:06 PM 42.8500 -71.2667 144° Southeast 89 102 2,900 -51 Descending KA90
Wed 04:11:05 PM 42.8167 -71.2833 200° South 90 104 2,900 53 Level KA90
Wed 04:12:00 PM 42.8000 -71.2833 180° South 91 105 3,000 109 Climbing KA90

Login

Don't have an account? Register now (free) for customized features, flight alerts, and more!